createdAt,value
2022-12-16T00:01:14.687Z,45.13
2022-12-16T00:03:49.045Z,44.60
2022-12-16T00:06:18.616Z,46.40
2022-12-16T00:08:47.491Z,46.33
2022-12-16T00:11:16.031Z,46.60
2022-12-16T00:13:44.883Z,46.80
2022-12-16T00:16:18.378Z,43.03
2022-12-16T00:18:47.161Z,42.50
2022-12-16T00:21:18.614Z,42.97
2022-12-16T00:23:47.249Z,45.47
2022-12-16T00:26:16.315Z,44.43
2022-12-16T00:28:44.631Z,44.00
2022-12-16T00:31:14.879Z,43.33
2022-12-16T00:33:43.634Z,45.27
2022-12-16T00:36:12.152Z,48.63
2022-12-16T00:38:40.865Z,49.50
2022-12-16T00:41:10.702Z,46.63
2022-12-16T00:43:39.057Z,49.23
2022-12-16T00:46:07.522Z,50.57
2022-12-16T00:48:37.352Z,48.10
2022-12-16T00:51:06.229Z,52.03
2022-12-16T00:53:35.883Z,47.67
2022-12-16T00:56:07.209Z,50.23
2022-12-16T00:58:35.999Z,47.70
2022-12-16T01:01:06.203Z,52.00
2022-12-16T01:03:37.027Z,53.60
2022-12-16T01:06:10.865Z,53.47
2022-12-16T01:08:39.597Z,50.20
2022-12-16T01:11:07.950Z,48.43
2022-12-16T01:13:37.216Z,55.50
2022-12-16T01:16:06.845Z,51.87
2022-12-16T01:18:37.165Z,52.90
2022-12-16T01:21:07.407Z,51.80
2022-12-16T01:23:36.935Z,52.00
2022-12-16T01:26:06.108Z,51.77
2022-12-16T01:28:34.759Z,55.80
2022-12-16T01:31:03.438Z,52.00
2022-12-16T01:33:34.227Z,57.20
2022-12-16T01:36:09.045Z,55.60
2022-12-16T01:38:37.979Z,55.40
2022-12-16T01:41:07.245Z,53.47
2022-12-16T01:43:39.420Z,51.37
2022-12-16T01:46:16.009Z,54.00
2022-12-16T01:48:49.729Z,50.13
2022-12-16T01:51:29.633Z,53.60
2022-12-16T01:54:05.832Z,51.07
2022-12-16T01:56:37.861Z,51.60
2022-12-16T01:59:08.356Z,49.23
2022-12-16T02:01:36.955Z,53.03
2022-12-16T02:04:05.696Z,58.03
2022-12-16T02:06:35.603Z,57.80
2022-12-16T02:09:11.292Z,50.07
2022-12-16T02:12:05.625Z,52.40
2022-12-16T02:15:05.550Z,55.83
2022-12-16T02:17:45.428Z,50.33
2022-12-16T02:20:48.482Z,52.07
2022-12-16T02:23:48.815Z,53.77
2022-12-16T02:27:18.755Z,53.53
2022-12-16T02:30:10.099Z,56.53
2022-12-16T02:32:55.781Z,52.83
2022-12-16T02:35:36.446Z,57.13
2022-12-16T02:38:22.517Z,51.43
2022-12-16T02:41:02.984Z,51.67
2022-12-16T02:43:55.983Z,58.03
2022-12-16T02:46:30.123Z,55.23
2022-12-16T02:49:08.466Z,56.33
2022-12-16T02:51:39.464Z,59.60
2022-12-16T02:54:11.006Z,62.03
2022-12-16T02:57:01.081Z,58.30
2022-12-16T02:59:43.584Z,60.43
2022-12-16T03:02:22.829Z,64.50
2022-12-16T03:04:59.223Z,58.87
2022-12-16T03:07:34.234Z,59.37
2022-12-16T03:10:07.767Z,57.77
2022-12-16T03:12:42.001Z,61.33
2022-12-16T03:15:13.873Z,60.43
2022-12-16T03:17:43.691Z,59.53
2022-12-16T03:20:20.480Z,60.77
2022-12-16T03:22:53.181Z,62.03
2022-12-16T03:25:24.644Z,62.47
2022-12-16T03:28:05.127Z,61.33
2022-12-16T03:30:40.420Z,60.33
2022-12-16T03:33:19.901Z,58.87
2022-12-16T03:35:55.289Z,59.13
2022-12-16T03:38:26.135Z,60.30
2022-12-16T03:40:57.290Z,59.63
2022-12-16T03:43:26.599Z,60.87
2022-12-16T03:46:02.146Z,64.53
2022-12-16T03:48:31.055Z,60.67
2022-12-16T03:51:01.121Z,59.33
2022-12-16T03:53:30.298Z,62.60
2022-12-16T03:55:58.921Z,57.40
2022-12-16T03:58:27.384Z,62.03
2022-12-16T04:00:56.302Z,61.40
2022-12-16T04:03:26.661Z,63.80
2022-12-16T04:05:54.995Z,64.43
2022-12-16T04:08:24.651Z,62.23
2022-12-16T04:11:10.856Z,61.90
2022-12-16T04:13:57.336Z,57.50
2022-12-16T04:16:46.297Z,66.53
2022-12-16T04:19:41.519Z,67.53
2022-12-16T04:22:35.646Z,60.03
2022-12-16T04:25:10.784Z,58.73
2022-12-16T04:27:39.425Z,65.10
2022-12-16T04:30:21.863Z,67.33
2022-12-16T04:33:14.220Z,71.90
2022-12-16T04:36:00.304Z,65.30
2022-12-16T04:38:46.340Z,66.40
2022-12-16T04:41:33.688Z,67.50
2022-12-16T04:44:19.926Z,69.53
2022-12-16T04:47:06.222Z,63.73
2022-12-16T04:49:52.381Z,66.97
2022-12-16T04:52:38.428Z,68.77
2022-12-16T04:55:26.335Z,59.20
2022-12-16T04:58:15.440Z,65.40
2022-12-16T05:01:02.955Z,60.70
2022-12-16T05:03:49.232Z,63.03
2022-12-16T05:06:35.838Z,56.77
2022-12-16T05:09:22.224Z,60.57
2022-12-16T05:12:09.304Z,61.63
2022-12-16T05:14:56.624Z,62.37
2022-12-16T05:17:42.631Z,57.77
2022-12-16T05:20:29.648Z,58.80
2022-12-16T05:23:15.871Z,52.77
2022-12-16T05:26:01.920Z,58.67
2022-12-16T05:28:48.723Z,56.93
2022-12-16T05:31:36.233Z,53.53
2022-12-16T05:34:22.298Z,60.03
2022-12-16T05:37:08.263Z,57.40
2022-12-16T05:39:54.255Z,54.80
2022-12-16T05:42:40.352Z,56.43
2022-12-16T05:45:26.890Z,59.30
2022-12-16T05:48:13.727Z,55.93
2022-12-16T05:50:59.894Z,56.00
2022-12-16T05:53:45.776Z,54.03
2022-12-16T05:56:31.783Z,55.33
2022-12-16T05:59:18.074Z,57.70
2022-12-16T06:02:04.230Z,57.57
2022-12-16T06:04:51.634Z,57.20
2022-12-16T06:07:37.540Z,56.77
2022-12-16T06:10:24.033Z,59.80
2022-12-16T06:13:10.059Z,57.13
2022-12-16T06:15:56.088Z,57.83
2022-12-16T06:18:50.476Z,53.97
2022-12-16T06:21:52.540Z,53.13
2022-12-16T06:24:38.428Z,53.27
2022-12-16T06:27:23.987Z,51.73
2022-12-16T06:30:11.965Z,53.67
2022-12-16T06:32:57.710Z,55.70
2022-12-16T06:35:55.248Z,53.70
2022-12-16T06:38:42.286Z,53.67
2022-12-16T06:41:36.414Z,52.43
2022-12-16T06:44:22.703Z,48.13
2022-12-16T06:47:09.116Z,54.10
2022-12-16T06:49:54.871Z,57.83
2022-12-16T06:52:40.734Z,53.93
2022-12-16T06:55:27.301Z,50.93
2022-12-16T06:58:16.888Z,54.23
2022-12-16T07:01:03.678Z,52.53
2022-12-16T07:03:50.061Z,50.67
2022-12-16T07:06:36.031Z,51.33
2022-12-16T07:09:22.461Z,54.97
2022-12-16T07:12:09.982Z,58.73
2022-12-16T07:15:01.150Z,49.70
2022-12-16T07:17:47.382Z,55.40
2022-12-16T07:20:33.154Z,61.63
2022-12-16T07:23:38.095Z,59.23
2022-12-16T07:26:24.390Z,54.27
2022-12-16T07:29:14.574Z,53.37
2022-12-16T07:32:00.312Z,58.43
2022-12-16T07:34:50.090Z,55.63
2022-12-16T07:37:36.555Z,54.87
2022-12-16T07:40:23.656Z,52.40
2022-12-16T07:43:09.529Z,58.03
2022-12-16T07:45:56.529Z,59.30
2022-12-16T07:48:43.535Z,55.53
2022-12-16T07:51:31.615Z,61.90
2022-12-16T07:54:17.305Z,57.80
2022-12-16T07:57:03.347Z,56.80
2022-12-16T07:59:49.233Z,55.57
2022-12-16T08:02:36.968Z,52.87
2022-12-16T08:05:23.603Z,56.30
2022-12-16T08:08:09.524Z,55.23
2022-12-16T08:10:55.480Z,53.77
2022-12-16T08:13:41.426Z,53.27
2022-12-16T08:16:27.422Z,55.13
2022-12-16T08:19:14.797Z,54.60
2022-12-16T08:22:00.839Z,55.43
2022-12-16T08:24:51.532Z,60.03
2022-12-16T08:27:39.133Z,52.50
2022-12-16T08:30:26.888Z,55.50
2022-12-16T08:33:18.870Z,50.50
2022-12-16T08:36:07.224Z,50.97
2022-12-16T08:38:55.974Z,49.23
2022-12-16T08:41:42.453Z,52.37
2022-12-16T08:44:28.525Z,46.17
2022-12-16T08:47:14.814Z,47.83
2022-12-16T08:50:02.385Z,50.50
2022-12-16T08:52:50.137Z,50.97
2022-12-16T08:55:36.511Z,46.53
2022-12-16T08:58:22.524Z,52.77
2022-12-16T09:01:08.568Z,52.30
2022-12-16T09:03:56.263Z,49.70
2022-12-16T09:06:42.257Z,50.23
2022-12-16T09:09:29.934Z,48.20
2022-12-16T09:12:15.854Z,48.90
2022-12-16T09:15:01.831Z,46.67
2022-12-16T09:17:48.107Z,50.30
2022-12-16T09:20:42.899Z,48.00
2022-12-16T09:23:29.209Z,47.67
2022-12-16T09:26:16.526Z,48.00
2022-12-16T09:29:02.631Z,45.60
2022-12-16T09:31:48.773Z,48.00
2022-12-16T09:34:34.751Z,46.33
2022-12-16T09:37:20.571Z,41.67
2022-12-16T09:40:06.910Z,45.80
2022-12-16T09:43:07.971Z,46.60
2022-12-16T09:46:04.485Z,46.93
2022-12-16T09:49:07.314Z,47.43
2022-12-16T09:51:55.824Z,48.40
2022-12-16T09:54:47.725Z,45.57
2022-12-16T09:57:34.831Z,56.40
2022-12-16T10:00:27.034Z,48.07
2022-12-16T10:03:16.363Z,47.43
2022-12-16T10:06:11.741Z,43.90
2022-12-16T10:09:10.027Z,49.63
2022-12-16T10:12:10.005Z,46.40
2022-12-16T10:15:09.783Z,38.97
2022-12-16T10:18:04.013Z,45.93
2022-12-16T10:21:01.532Z,41.93
2022-12-16T10:23:54.458Z,38.73
2022-12-16T10:27:03.885Z,38.67
2022-12-16T10:29:57.877Z,38.23
2022-12-16T10:32:51.900Z,41.67
2022-12-16T10:35:46.562Z,41.03
2022-12-16T10:38:41.504Z,38.33
2022-12-16T10:41:30.473Z,39.67
2022-12-16T10:44:18.978Z,39.03
2022-12-16T10:47:05.013Z,37.00
2022-12-16T10:49:55.071Z,35.07
2022-12-16T10:52:42.559Z,39.87
2022-12-16T10:55:47.252Z,39.13
2022-12-16T10:58:48.365Z,35.03
2022-12-16T11:01:42.012Z,38.53
2022-12-16T11:04:55.826Z,38.00
2022-12-16T11:07:52.099Z,38.93
2022-12-16T11:10:52.314Z,37.13
2022-12-16T11:13:43.524Z,37.17
2022-12-16T11:16:41.771Z,39.13
2022-12-16T11:19:39.969Z,36.70
2022-12-16T11:22:33.028Z,34.43
2022-12-16T11:25:34.662Z,34.60
2022-12-16T11:28:30.065Z,36.67
2022-12-16T11:31:21.067Z,35.20
2022-12-16T11:34:09.183Z,36.20
2022-12-16T11:36:57.814Z,34.03
2022-12-16T11:39:47.639Z,33.93
2022-12-16T11:42:41.715Z,30.90
2022-12-16T11:45:35.999Z,30.00
2022-12-16T11:48:35.806Z,33.57
2022-12-16T11:51:24.157Z,34.37
2022-12-16T11:54:17.759Z,34.30
2022-12-16T11:57:05.070Z,32.37
2022-12-16T12:00:00.639Z,32.77
2022-12-16T12:02:56.213Z,32.47
2022-12-16T12:05:51.559Z,33.53
2022-12-16T12:08:49.613Z,29.80
2022-12-16T12:11:41.744Z,28.97
2022-12-16T12:14:44.130Z,26.40
2022-12-16T12:17:49.544Z,32.37
2022-12-16T12:21:02.476Z,28.83
2022-12-16T12:24:05.393Z,31.13
2022-12-16T12:26:53.989Z,30.73
2022-12-16T12:29:57.705Z,31.80
2022-12-16T12:32:56.014Z,29.50
2022-12-16T12:36:08.214Z,28.63
2022-12-16T12:39:10.792Z,27.13
2022-12-16T12:42:16.918Z,24.33
2022-12-16T12:45:18.300Z,29.70
2022-12-16T12:48:16.092Z,29.80
2022-12-16T12:51:15.570Z,29.60
2022-12-16T12:54:13.328Z,28.60
2022-12-16T12:57:07.716Z,27.73
2022-12-16T13:00:09.305Z,30.13
2022-12-16T13:03:21.200Z,27.30
2022-12-16T13:06:08.899Z,21.63
2022-12-16T13:09:15.746Z,25.87
2022-12-16T13:12:47.239Z,23.90
2022-12-16T13:15:54.146Z,29.17
2022-12-16T13:18:48.889Z,22.53
2022-12-16T13:22:06.043Z,25.50
2022-12-16T13:24:58.695Z,27.97
2022-12-16T13:27:48.136Z,23.10
2022-12-16T13:30:42.707Z,24.33
2022-12-16T13:33:48.683Z,22.80
2022-12-16T13:36:37.530Z,23.80
2022-12-16T13:39:43.914Z,21.93
2022-12-16T13:43:08.895Z,21.53
2022-12-16T13:45:58.068Z,18.90
2022-12-16T13:49:01.146Z,17.37
2022-12-16T13:52:19.361Z,22.47
2022-12-16T13:55:24.797Z,18.90
2022-12-16T13:58:16.301Z,21.57
2022-12-16T14:01:08.941Z,19.93
2022-12-16T14:04:04.190Z,17.83
2022-12-16T14:06:54.008Z,17.10
2022-12-16T14:09:57.126Z,18.37
2022-12-16T14:13:04.711Z,16.07
2022-12-16T14:16:04.431Z,16.23
2022-12-16T14:19:06.857Z,16.93
2022-12-16T14:22:03.975Z,18.47
2022-12-16T14:24:50.499Z,16.20
2022-12-16T14:27:40.628Z,20.67
2022-12-16T14:30:37.962Z,16.33
2022-12-16T14:33:47.553Z,19.73
2022-12-16T14:36:47.569Z,17.77
2022-12-16T14:39:40.333Z,19.07
2022-12-16T14:42:38.334Z,18.10
2022-12-16T14:45:40.242Z,17.10
2022-12-16T14:48:45.996Z,16.37
2022-12-16T14:51:48.251Z,16.10
2022-12-16T14:54:41.627Z,17.83
2022-12-16T14:57:34.871Z,17.27
2022-12-16T15:00:31.616Z,21.13
2022-12-16T15:03:26.316Z,17.97
2022-12-16T15:06:19.112Z,20.87
2022-12-16T15:09:14.818Z,15.13
2022-12-16T15:12:03.354Z,16.57
2022-12-16T15:14:53.498Z,20.53
2022-12-16T15:17:41.781Z,21.47
2022-12-16T15:20:39.360Z,17.57
2022-12-16T15:23:36.682Z,19.03
2022-12-16T15:26:25.368Z,18.43
2022-12-16T15:29:11.891Z,26.10
2022-12-16T15:32:03.283Z,26.07
2022-12-16T15:35:07.100Z,24.13
2022-12-16T15:38:03.610Z,37.20
2022-12-16T15:40:54.348Z,35.27
2022-12-16T15:43:48.800Z,31.27
2022-12-16T15:46:39.957Z,33.37
2022-12-16T15:49:43.127Z,30.07
2022-12-16T15:52:53.441Z,31.53
2022-12-16T15:55:49.695Z,28.60
2022-12-16T15:58:43.320Z,32.17
2022-12-16T16:01:34.087Z,32.40
2022-12-16T16:04:20.804Z,31.63
2022-12-16T16:07:08.864Z,32.23
2022-12-16T16:10:01.016Z,30.97
2022-12-16T16:12:46.944Z,35.47
2022-12-16T16:15:33.866Z,38.43
2022-12-16T16:18:24.273Z,36.93
2022-12-16T16:21:11.223Z,39.53
2022-12-16T16:23:57.090Z,35.10
2022-12-16T16:26:46.988Z,32.67
2022-12-16T16:29:33.701Z,38.07
2022-12-16T16:32:21.031Z,35.53
2022-12-16T16:35:08.314Z,37.00
2022-12-16T16:37:54.642Z,42.67
2022-12-16T16:40:50.083Z,44.10
2022-12-16T16:43:36.889Z,46.47
2022-12-16T16:46:42.898Z,41.37
2022-12-16T16:49:36.071Z,38.77
2022-12-16T16:52:23.443Z,42.10
2022-12-16T16:55:09.438Z,43.33
2022-12-16T16:57:57.103Z,38.00
2022-12-16T17:00:43.595Z,44.03
2022-12-16T17:03:29.588Z,47.60
2022-12-16T17:06:15.846Z,36.97
2022-12-16T17:09:02.953Z,38.20
2022-12-16T17:11:50.468Z,38.27
2022-12-16T17:14:39.259Z,43.87
2022-12-16T17:17:25.858Z,42.63
2022-12-16T17:20:11.796Z,44.33
2022-12-16T17:22:59.014Z,43.03
2022-12-16T17:25:46.109Z,43.93
2022-12-16T17:28:32.086Z,37.33
2022-12-16T17:31:18.373Z,42.23
2022-12-16T17:34:04.436Z,49.50
2022-12-16T17:36:46.958Z,45.80
2022-12-16T17:39:32.660Z,41.77
2022-12-16T17:42:19.713Z,38.90
2022-12-16T17:45:05.566Z,41.43
2022-12-16T17:47:51.180Z,41.63
2022-12-16T17:50:37.011Z,41.17
2022-12-16T17:53:23.143Z,42.90
2022-12-16T17:56:09.501Z,42.83
2022-12-16T17:58:58.328Z,45.80
2022-12-16T18:01:45.084Z,39.87
2022-12-16T18:04:31.479Z,45.20
2022-12-16T18:07:17.771Z,43.80
2022-12-16T18:10:03.998Z,40.33
2022-12-16T18:12:51.733Z,35.07
2022-12-16T18:15:39.010Z,47.03
2022-12-16T18:18:25.317Z,41.93
2022-12-16T18:21:11.308Z,46.67
2022-12-16T18:23:57.414Z,36.93
2022-12-16T18:26:43.360Z,40.03
2022-12-16T18:29:29.468Z,41.97
2022-12-16T18:32:16.765Z,36.43
2022-12-16T18:35:03.020Z,40.67
2022-12-16T18:38:00.518Z,43.00
2022-12-16T18:41:01.502Z,37.33
2022-12-16T18:43:46.762Z,37.07
2022-12-16T18:46:33.307Z,40.20
2022-12-16T18:49:20.836Z,39.73
2022-12-16T18:52:06.793Z,39.13
2022-12-16T18:54:52.756Z,40.40
2022-12-16T18:57:39.936Z,39.33
2022-12-16T19:00:27.962Z,38.17
2022-12-16T19:03:13.756Z,42.63
2022-12-16T19:06:01.484Z,37.77
2022-12-16T19:08:48.431Z,41.33
2022-12-16T19:11:34.364Z,41.67
2022-12-16T19:14:35.471Z,39.77
2022-12-16T19:17:21.579Z,39.03
2022-12-16T19:20:07.758Z,42.03
2022-12-16T19:22:56.536Z,39.63
2022-12-16T19:25:42.312Z,44.03
2022-12-16T19:28:32.044Z,44.03
2022-12-16T19:31:18.184Z,44.53
2022-12-16T19:34:04.225Z,39.93
2022-12-16T19:36:50.487Z,44.17
2022-12-16T19:39:37.734Z,47.77
2022-12-16T19:42:23.931Z,50.67
2022-12-16T19:45:10.167Z,38.63
2022-12-16T19:47:56.394Z,47.63
2022-12-16T19:50:42.137Z,43.87
2022-12-16T19:53:28.237Z,41.80
2022-12-16T19:56:17.461Z,43.53
2022-12-16T19:59:03.533Z,41.50
2022-12-16T20:01:50.309Z,39.50
2022-12-16T20:04:38.007Z,43.77
2022-12-16T20:07:24.254Z,42.63
2022-12-16T20:10:10.230Z,40.67
2022-12-16T20:12:57.391Z,41.60
2022-12-16T20:15:42.480Z,37.97
2022-12-16T20:18:36.854Z,44.20
2022-12-16T20:21:23.777Z,40.83
2022-12-16T20:24:09.745Z,41.00
2022-12-16T20:26:55.734Z,45.27
2022-12-16T20:29:43.087Z,41.43
2022-12-16T20:32:29.118Z,39.23
2022-12-16T20:35:14.972Z,40.23
2022-12-16T20:38:03.246Z,44.30
2022-12-16T20:40:49.084Z,39.47
2022-12-16T20:43:35.010Z,38.77
2022-12-16T20:46:22.511Z,40.67
2022-12-16T20:49:09.209Z,41.80
2022-12-16T20:51:56.277Z,38.70
2022-12-16T20:54:42.489Z,38.37
2022-12-16T20:57:29.093Z,36.47
2022-12-16T21:00:15.331Z,37.90
2022-12-16T21:03:02.719Z,40.47
2022-12-16T21:05:49.142Z,37.90
2022-12-16T21:08:35.187Z,37.90
2022-12-16T21:11:21.501Z,40.30
2022-12-16T21:14:09.042Z,45.50
2022-12-16T21:16:56.047Z,38.77
2022-12-16T21:19:43.494Z,43.03
2022-12-16T21:22:29.565Z,38.53
2022-12-16T21:25:19.749Z,39.23
2022-12-16T21:28:09.610Z,37.93
2022-12-16T21:30:56.075Z,37.27
2022-12-16T21:33:42.547Z,36.40
2022-12-16T21:36:30.164Z,37.53
2022-12-16T21:39:16.105Z,40.57
2022-12-16T21:42:02.186Z,41.37
2022-12-16T21:44:47.300Z,44.27
2022-12-16T21:47:33.242Z,47.23
2022-12-16T21:50:19.257Z,45.57
2022-12-16T21:53:04.126Z,45.90
2022-12-16T21:55:46.896Z,44.47
2022-12-16T21:58:32.602Z,43.40
2022-12-16T22:01:18.990Z,38.53
2022-12-16T22:04:05.496Z,41.23
2022-12-16T22:06:51.464Z,40.83
2022-12-16T22:09:39.340Z,43.57
2022-12-16T22:12:25.856Z,42.30
2022-12-16T22:15:11.850Z,41.63
2022-12-16T22:17:58.965Z,43.43
2022-12-16T22:20:45.292Z,46.00
2022-12-16T22:23:31.336Z,40.40
2022-12-16T22:26:20.436Z,47.40
2022-12-16T22:29:06.680Z,41.17
2022-12-16T22:31:52.819Z,37.57
2022-12-16T22:34:42.375Z,39.60
2022-12-16T22:37:28.505Z,40.63
2022-12-16T22:40:14.552Z,38.17
2022-12-16T22:43:01.692Z,44.13
2022-12-16T22:45:48.193Z,42.10
2022-12-16T22:48:34.139Z,42.90
2022-12-16T22:51:20.650Z,40.70
2022-12-16T22:54:08.007Z,37.30
2022-12-16T22:56:56.475Z,46.37
2022-12-16T22:59:44.110Z,44.10
2022-12-16T23:02:30.126Z,38.70
2022-12-16T23:05:16.144Z,40.37
2022-12-16T23:08:02.257Z,38.37
2022-12-16T23:10:48.258Z,38.57
2022-12-16T23:13:34.157Z,40.37
2022-12-16T23:16:21.215Z,38.43
2022-12-16T23:19:07.186Z,42.80
2022-12-16T23:21:53.162Z,41.40
2022-12-16T23:24:39.713Z,44.23
2022-12-16T23:27:27.080Z,39.67
2022-12-16T23:30:13.090Z,47.23
2022-12-16T23:33:00.291Z,44.03
2022-12-16T23:35:46.298Z,42.20
2022-12-16T23:38:31.960Z,44.67
2022-12-16T23:41:18.485Z,45.73
2022-12-16T23:44:04.156Z,42.40
2022-12-16T23:46:50.596Z,43.50
2022-12-16T23:49:37.733Z,40.77
2022-12-16T23:52:23.814Z,40.27
2022-12-16T23:55:09.710Z,40.60
2022-12-16T23:57:56.164Z,44.77
